Time;durP1;ratioP1;P1;durP2;ratioP2;P2;SDS_P1;SDS_P2;PMS_P1;PMS_P2;Temp;Humidity;BMP_temperature;BMP_pressure;BME280_temperature;BME280_humidity;BME280_pressure;Samples;Min_cycle;Max_cycle;Signal;HPM_P1;HPM_P2
2021/11/25 00:01:22;;;;;;;0.80;0.80;;;;;;;6.78;60.36;98950.91;3415734;29;20065;-71
2021/11/25 00:03:03;;;;;;;0.88;0.88;;;;;;;6.82;60.51;98964.59;3415713;29;20514;-71
2021/11/25 00:04:43;;;;;;;1.15;1.05;;;;;;;6.84;60.67;98951.16;3415669;29;20041;-70
2021/11/25 00:06:24;;;;;;;1.60;1.40;;;;;;;6.84;60.96;98954.66;3415591;29;20047;-71
2021/11/25 00:08:06;;;;;;;1.10;1.00;;;;;;;6.86;61.00;98955.25;3415900;29;20043;-70
2021/11/25 00:09:47;;;;;;;0.70;0.70;;;;;;;6.89;60.86;98951.41;3414955;28;20490;-72
2021/11/25 00:11:28;;;;;;;0.70;0.70;;;;;;;6.89;60.98;98954.91;3415193;29;20046;-71
2021/11/25 00:13:10;;;;;;;1.20;0.90;;;;;;;6.93;60.98;98953.50;3411605;29;20063;-72
2021/11/25 00:14:51;;;;;;;0.82;0.82;;;;;;;6.93;61.13;98958.78;3415571;29;20081;-71
2021/11/25 00:16:32;;;;;;;0.90;0.80;;;;;;;6.93;61.03;98961.44;3415482;29;20035;-71
2021/11/25 00:18:12;;;;;;;1.20;0.82;;;;;;;6.94;60.92;98963.09;3415338;29;20125;-71
2021/11/25 00:19:53;;;;;;;0.80;0.80;;;;;;;6.92;60.84;98965.13;3401214;29;20123;-71
2021/11/25 00:21:34;;;;;;;1.85;0.70;;;;;;;6.92;61.05;98965.13;3412275;29;20094;-70
2021/11/25 00:23:15;;;;;;;2.38;0.80;;;;;;;6.94;61.15;98971.03;3415095;29;20035;-70
2021/11/25 00:24:55;;;;;;;0.82;0.80;;;;;;;6.96;61.09;98971.66;3415423;29;20146;-70
2021/11/25 00:26:36;;;;;;;0.70;0.70;;;;;;;6.97;61.18;98973.31;3415463;29;20043;-71
2021/11/25 00:28:17;;;;;;;0.80;0.80;;;;;;;6.98;61.04;98972.28;3400926;29;20480;-71
2021/11/25 00:29:58;;;;;;;4.78;1.02;;;;;;;7.00;61.31;98972.13;3415174;28;20526;-71
2021/11/25 00:31:39;;;;;;;3.28;0.70;;;;;;;7.04;61.53;98983.13;3418896;28;20051;-70
2021/11/25 00:33:20;;;;;;;0.65;0.60;;;;;;;7.04;61.38;98985.78;3401302;29;20043;-70
2021/11/25 00:35:01;;;;;;;0.80;0.80;;;;;;;7.01;61.09;98980.88;3412600;29;20039;-70
2021/11/25 00:36:42;;;;;;;1.08;1.08;;;;;;;7.04;61.46;98980.50;3415090;29;20039;-71
2021/11/25 00:38:23;;;;;;;1.98;0.80;;;;;;;7.02;61.35;98985.97;3415134;29;20089;-70
2021/11/25 00:40:12;;;;;;;0.93;0.80;;;;;;;6.99;61.32;98979.22;3414769;29;20042;-71
2021/11/25 00:41:53;;;;;;;0.77;0.77;;;;;;;6.99;61.30;98992.47;3415304;29;20078;-71
2021/11/25 00:43:33;;;;;;;0.70;0.70;;;;;;;6.98;61.39;98996.13;3414190;29;20043;-70
2021/11/25 00:45:16;;;;;;;1.17;0.90;;;;;;;7.04;61.63;98999.03;3415030;29;20094;-69
2021/11/25 00:46:57;;;;;;;3.55;1.10;;;;;;;7.04;61.55;98999.03;3415053;29;20454;-69
2021/11/25 00:48:38;;;;;;;1.38;1.17;;;;;;;7.10;61.69;99000.91;3414972;29;20086;-69
2021/11/25 00:50:20;;;;;;;1.85;0.75;;;;;;;7.15;61.53;98995.88;3414398;29;20529;-70
2021/11/25 00:52:00;;;;;;;0.93;0.73;;;;;;;7.22;61.60;98999.41;3413929;29;20396;-70
2021/11/25 00:53:41;;;;;;;3.33;0.90;;;;;;;7.27;61.67;98994.38;3414603;29;20063;-70
2021/11/25 00:55:22;;;;;;;0.60;0.60;;;;;;;7.31;61.74;98994.81;3400440;29;20032;-71
2021/11/25 00:57:03;;;;;;;0.60;0.60;;;;;;;7.32;61.88;99005.22;3412158;29;20046;-69
2021/11/25 00:58:44;;;;;;;1.08;0.70;;;;;;;7.37;61.66;99013.41;3415200;29;20098;-69
2021/11/25 01:00:25;;;;;;;0.70;0.63;;;;;;;7.39;61.95;99008.75;3414647;29;20070;-70
2021/11/25 01:02:05;;;;;;;1.05;0.90;;;;;;;7.42;61.85;99007.56;3414503;29;20507;-70
2021/11/25 01:03:46;;;;;;;0.75;0.65;;;;;;;7.43;61.79;99017.97;3415014;29;20039;-70
2021/11/25 01:05:27;;;;;;;1.20;0.93;;;;;;;7.47;61.55;99017.59;3414917;29;20094;-70
2021/11/25 01:07:08;;;;;;;0.77;0.60;;;;;;;7.45;61.43;99009.00;3414895;29;20466;-70
2021/11/25 01:08:48;;;;;;;0.70;0.60;;;;;;;7.50;61.49;99017.19;3413817;29;20047;-70
2021/11/25 01:10:29;;;;;;;0.77;0.63;;;;;;;7.52;61.36;99020.50;3414406;29;20039;-71
2021/11/25 01:12:11;;;;;;;2.25;0.70;;;;;;;7.56;61.24;99011.13;3414735;29;20039;-70
2021/11/25 01:13:53;;;;;;;0.63;0.63;;;;;;;7.59;61.21;99024.00;3414473;29;20130;-70
2021/11/25 01:15:34;;;;;;;2.40;0.90;;;;;;;7.61;61.28;99019.31;3414815;29;20050;-70
2021/11/25 01:17:15;;;;;;;1.83;0.73;;;;;;;7.61;61.22;99027.28;3414785;29;20058;-70
2021/11/25 01:18:56;;;;;;;0.90;0.85;;;;;;;7.63;60.84;99033.22;3415336;29;20506;-71
2021/11/25 01:20:38;;;;;;;0.70;0.70;;;;;;;7.65;60.99;99036.50;3414507;29;20035;-71
2021/11/25 01:22:19;;;;;;;0.93;0.88;;;;;;;7.64;60.73;99025.09;3400033;29;20039;-71
2021/11/25 01:24:00;;;;;;;0.60;0.60;;;;;;;7.66;60.82;99040.78;3412233;29;20043;-72
2021/11/25 01:25:41;;;;;;;0.50;0.47;;;;;;;7.67;60.79;99039.78;3414718;29;20102;-71
2021/11/25 01:27:22;;;;;;;0.80;0.70;;;;;;;7.67;60.65;99031.84;3387436;29;20081;-71
2021/11/25 01:29:03;;;;;;;0.90;0.60;;;;;;;7.65;60.79;99039.97;3408714;29;20047;-71
2021/11/25 01:30:47;;;;;;;0.90;0.70;;;;;;;7.69;60.76;99043.03;3414554;29;20154;-71
2021/11/25 01:32:28;;;;;;;0.50;0.50;;;;;;;7.69;60.79;99043.03;3400340;29;20081;-72
2021/11/25 01:34:09;;;;;;;2.40;0.85;;;;;;;7.69;60.67;99053.66;3397345;29;20454;-71
2021/11/25 01:35:51;;;;;;;0.90;0.80;;;;;;;7.68;60.70;99053.88;3412267;29;20035;-70
2021/11/25 01:37:33;;;;;;;;;;;;;;;7.77;60.47;99058.84;3414991;29;20126;-70
2021/11/25 01:39:13;;;;;;;1.67;0.80;;;;;;;7.70;60.20;99050.00;3414081;29;19973;-72
2021/11/25 01:40:54;;;;;;;1.02;0.88;;;;;;;7.68;60.36;99054.69;3414901;29;20031;-71
2021/11/25 01:42:35;;;;;;;0.95;0.70;;;;;;;7.68;60.48;99062.63;3414520;29;20043;-71
2021/11/25 01:44:16;;;;;;;0.90;0.85;;;;;;;7.67;60.47;99063.66;3414340;29;20126;-72
2021/11/25 01:45:57;;;;;;;1.80;0.95;;;;;;;7.65;60.33;99063.03;3415209;29;20039;-71
2021/11/25 01:47:44;;;;;;;1.45;0.90;;;;;;;7.66;60.36;99069.97;3414509;29;20040;-70
2021/11/25 01:49:24;;;;;;;2.13;0.82;;;;;;;7.66;60.21;99069.97;3414408;29;20049;-70
2021/11/25 01:51:05;;;;;;;0.75;0.75;;;;;;;7.67;60.22;99079.56;3414404;29;20083;-71
2021/11/25 01:52:46;;;;;;;0.77;0.77;;;;;;;7.70;60.24;99076.53;3400824;29;20039;-70
2021/11/25 01:54:27;;;;;;;0.77;0.70;;;;;;;7.72;60.19;99074.50;3411948;29;20039;-70
2021/11/25 01:56:09;;;;;;;0.80;0.80;;;;;;;7.70;60.21;99076.53;3414390;29;20081;-72
2021/11/25 01:57:51;;;;;;;2.15;0.88;;;;;;;7.74;59.95;99083.06;3414542;29;20036;-70
2021/11/25 01:59:36;;;;;;;0.80;0.50;;;;;;;7.73;60.00;99075.34;3414433;29;20043;-71
2021/11/25 02:01:19;;;;;;;1.73;0.63;;;;;;;7.74;60.17;99077.78;3414477;29;20039;-71
2021/11/25 02:03:01;;;;;;;0.88;0.70;;;;;;;7.77;60.06;99084.53;3414897;29;20043;-70
2021/11/25 02:04:42;;;;;;;7.32;2.65;;;;;;;7.77;59.82;99077.41;3414812;29;20039;-69
2021/11/25 02:06:22;;;;;;;0.60;0.60;;;;;;;7.81;59.98;99088.44;3414028;29;20039;-70
2021/11/25 02:08:04;;;;;;;1.02;0.73;;;;;;;7.82;60.03;99095.38;3414041;29;20035;-70
2021/11/25 02:09:45;;;;;;;1.73;1.20;;;;;;;7.83;59.92;99097.06;3414853;29;20050;-70
2021/11/25 02:11:26;;;;;;;1.65;0.70;;;;;;;7.82;60.00;99090.94;3413418;29;20042;-70
2021/11/25 02:13:06;;;;;;;1.05;0.65;;;;;;;7.82;60.13;99090.09;3414181;29;20071;-69
2021/11/25 02:14:48;;;;;;;0.75;0.60;;;;;;;7.81;59.86;99089.28;3414662;29;20035;-71
2021/11/25 02:16:28;;;;;;;2.88;1.30;;;;;;;7.78;59.85;99089.66;3414489;29;20039;-71
2021/11/25 02:18:13;;;;;;;1.30;0.50;;;;;;;7.79;59.94;99091.28;3413807;29;20094;-71
2021/11/25 02:19:54;;;;;;;1.17;0.80;;;;;;;7.78;59.67;99094.97;3414791;29;20043;-71
2021/11/25 02:21:35;;;;;;;1.52;1.42;;;;;;;7.80;59.85;99098.25;3387219;29;20040;-71
2021/11/25 02:23:17;;;;;;;2.80;1.25;;;;;;;7.79;59.94;99099.25;3395110;29;20040;-70
2021/11/25 02:24:58;;;;;;;;;;;;;;;7.89;59.73;99106.88;3412331;29;20395;-70
2021/11/25 02:26:39;;;;;;;1.67;0.60;;;;;;;7.82;59.73;99104.19;3414654;29;19969;-72
2021/11/25 02:28:21;;;;;;;1.65;0.70;;;;;;;7.81;59.64;99105.19;3414284;29;20138;-70
2021/11/25 02:30:04;;;;;;;1.70;0.90;;;;;;;7.80;59.87;99103.56;3414475;29;20046;-71
2021/11/25 02:31:45;;;;;;;1.50;0.70;;;;;;;7.80;59.76;99102.75;3407157;29;20051;-70
2021/11/25 02:33:25;;;;;;;2.05;0.68;;;;;;;7.78;59.71;99094.97;3414725;28;20561;-70
2021/11/25 02:35:13;;;;;;;1.05;0.70;;;;;;;7.78;59.77;99102.91;3416748;29;20409;-72
2021/11/25 02:36:53;;;;;;;1.45;0.90;;;;;;;7.78;59.55;99110.06;3402841;29;20079;-70
2021/11/25 02:38:35;;;;;;;1.63;0.80;;;;;;;7.78;59.67;99110.88;3413658;29;20138;-72
2021/11/25 02:40:26;;;;;;;1.60;0.73;;;;;;;7.77;59.58;99109.25;3416751;29;20566;-70
2021/11/25 02:42:07;;;;;;;1.35;0.75;;;;;;;7.80;59.57;99113.34;3416450;29;20287;-71
2021/11/25 02:43:48;;;;;;;0.73;0.60;;;;;;;7.78;59.38;99124.13;3416670;29;20070;-71
2021/11/25 02:45:29;;;;;;;0.95;0.70;;;;;;;7.80;59.48;99126.63;3416605;29;20047;-71
2021/11/25 02:47:10;;;;;;;1.25;0.85;;;;;;;7.80;59.39;99132.75;3416483;29;20098;-70
2021/11/25 02:48:53;;;;;;;0.70;0.70;;;;;;;7.80;59.72;99130.09;3416262;29;20098;-70
2021/11/25 02:50:33;;;;;;;1.20;0.70;;;;;;;7.81;59.42;99128.25;3415651;29;20455;-71
2021/11/25 02:52:14;;;;;;;2.03;1.35;;;;;;;7.82;59.49;99146.63;3416334;29;20045;-71
2021/11/25 02:53:55;;;;;;;1.05;0.75;;;;;;;7.84;59.32;99136.63;3415894;29;20031;-70
2021/11/25 02:55:36;;;;;;;0.75;0.63;;;;;;;7.84;59.42;99138.47;3416343;29;20102;-70
2021/11/25 02:57:17;;;;;;;0.60;0.60;;;;;;;7.83;59.28;99140.31;3416394;29;20066;-69
2021/11/25 02:59:00;;;;;;;2.38;0.80;;;;;;;7.88;59.35;99141.59;3416479;29;20134;-70
2021/11/25 03:00:43;;;;;;;1.08;0.90;;;;;;;7.88;59.39;99142.41;3402126;29;20067;-70
2021/11/25 03:02:24;;;;;;;1.58;0.85;;;;;;;7.89;59.32;99137.91;3414019;29;20070;-71
2021/11/25 03:04:06;;;;;;;1.33;0.85;;;;;;;7.88;59.13;99134.44;3415898;29;20043;-70
2021/11/25 03:05:49;;;;;;;0.75;0.75;;;;;;;7.90;59.23;99128.91;3416754;29;20048;-70
2021/11/25 03:07:29;;;;;;;0.75;0.60;;;;;;;7.92;59.11;99133.03;3416559;29;20071;-70
2021/11/25 03:09:10;;;;;;;1.85;0.70;;;;;;;7.92;59.16;99130.38;3415579;29;20097;-71
2021/11/25 03:11:02;;;;;;;1.30;0.90;;;;;;;7.94;59.09;99124.88;3416454;29;20031;-71
2021/11/25 03:12:42;;;;;;;0.70;0.70;;;;;;;7.92;58.99;99116.28;3416270;29;20039;-70
2021/11/25 03:14:23;;;;;;;1.42;0.60;;;;;;;7.95;59.16;99127.38;3416140;29;20037;-71
2021/11/25 03:16:05;;;;;;;0.82;0.80;;;;;;;7.96;59.00;99126.34;3415981;29;20098;-70
2021/11/25 03:17:46;;;;;;;3.22;0.77;;;;;;;7.95;59.00;99121.22;3416555;29;20051;-71
2021/11/25 03:19:26;;;;;;;1.67;0.68;;;;;;;7.95;59.13;99126.50;3414729;29;20624;-71
2021/11/25 03:21:07;;;;;;;0.65;0.63;;;;;;;7.93;58.74;99124.06;3416104;29;20046;-70
2021/11/25 03:22:48;;;;;;;1.50;1.23;;;;;;;7.97;58.87;99125.31;3416373;29;20039;-72
2021/11/25 03:24:29;;;;;;;4.20;2.17;;;;;;;7.98;58.79;99134.13;3416051;29;20138;-70
2021/11/25 03:26:10;;;;;;;2.70;1.23;;;;;;;7.98;58.92;99126.16;3415983;29;20043;-71
2021/11/25 03:27:52;;;;;;;3.30;1.48;;;;;;;8.01;58.84;99131.06;3416144;29;20122;-72
2021/11/25 03:29:33;;;;;;;1.40;1.17;;;;;;;8.01;58.64;99137.19;3415994;29;20039;-71
2021/11/25 03:31:19;;;;;;;2.60;1.25;;;;;;;8.04;58.83;99136.00;3415766;29;20058;-69
2021/11/25 03:33:02;;;;;;;1.58;0.80;;;;;;;8.04;58.66;99143.97;3416369;29;20114;-71
2021/11/25 03:34:43;;;;;;;1.98;0.70;;;;;;;8.04;58.68;99144.78;3416004;29;20047;-69
2021/11/25 03:36:24;;;;;;;1.77;1.10;;;;;;;8.03;58.59;99152.94;3401548;29;20143;-69
2021/11/25 03:38:05;;;;;;;1.92;1.30;;;;;;;8.01;58.64;99147.00;3412961;29;20510;-69
2021/11/25 03:39:46;;;;;;;1.30;1.20;;;;;;;7.99;58.57;99154.31;3415764;29;20039;-69
2021/11/25 03:41:28;;;;;;;1.38;0.95;;;;;;;7.98;58.61;99158.00;3415837;29;20094;-70
2021/11/25 03:43:09;;;;;;;2.05;0.90;;;;;;;7.95;58.69;99156.56;3415957;29;20047;-70
2021/11/25 03:44:51;;;;;;;1.35;1.10;;;;;;;7.94;58.61;99164.69;3415829;28;20078;-71
2021/11/25 03:46:35;;;;;;;2.58;0.63;;;;;;;7.92;58.61;99158.75;3401237;29;20036;-71
2021/11/25 03:48:16;;;;;;;5.25;1.42;;;;;;;7.91;58.46;99163.22;3413369;29;20039;-71
2021/11/25 03:49:57;;;;;;;0.90;0.90;;;;;;;7.92;58.53;99164.88;3415783;29;20035;-71
2021/11/25 03:51:38;;;;;;;0.70;0.70;;;;;;;7.91;58.52;99173.03;3415593;29;20043;-70
2021/11/25 03:53:18;;;;;;;1.45;1.10;;;;;;;7.93;58.44;99176.31;3415902;29;20086;-70
2021/11/25 03:54:59;;;;;;;2.15;1.15;;;;;;;7.93;58.32;99181.63;3416272;29;20098;-72
2021/11/25 03:56:40;;;;;;;2.60;0.65;;;;;;;7.92;58.43;99177.31;3415697;29;20049;-71
2021/11/25 03:58:21;;;;;;;1.27;0.80;;;;;;;7.91;58.23;99183.66;3415677;29;20062;-71
2021/11/25 04:00:05;;;;;;;2.83;0.90;;;;;;;7.89;58.33;99180.34;3415633;29;20039;-71
2021/11/25 04:01:52;;;;;;;2.92;1.00;;;;;;;7.91;58.29;99181.00;3409497;29;20053;-71
2021/11/25 04:03:34;;;;;;;0.90;0.85;;;;;;;7.90;58.04;99182.84;3415748;29;20410;-72
2021/11/25 04:05:15;;;;;;;3.17;1.17;;;;;;;7.91;58.14;99181.00;3401276;29;20038;-71
2021/11/25 04:06:55;;;;;;;1.20;1.10;;;;;;;7.92;58.23;99179.97;3401582;29;20122;-71
2021/11/25 04:08:36;;;;;;;2.17;1.10;;;;;;;7.91;58.17;99187.13;3412510;29;20047;-73
2021/11/25 04:10:17;;;;;;;2.08;1.08;;;;;;;7.92;58.05;99183.44;3401314;29;20141;-71
2021/11/25 04:11:58;;;;;;;1.80;0.90;;;;;;;7.93;58.21;99193.06;3401883;29;20043;-71
2021/11/25 04:13:39;;;;;;;2.95;0.80;;;;;;;7.92;57.77;99190.59;3412567;29;20516;-71
2021/11/25 04:15:20;;;;;;;1.25;0.80;;;;;;;7.95;58.12;99195.50;3414678;29;20521;-71
2021/11/25 04:17:00;;;;;;;2.90;0.95;;;;;;;7.95;58.00;99190.19;3415568;29;20067;-71
2021/11/25 04:18:41;;;;;;;2.45;1.25;;;;;;;7.94;57.83;99192.03;3415120;29;20070;-70
2021/11/25 04:20:22;;;;;;;2.20;1.00;;;;;;;7.93;57.93;99193.06;3415458;29;20035;-71
2021/11/25 04:22:03;;;;;;;3.90;1.98;;;;;;;7.91;57.96;99194.25;3414424;29;20422;-74
2021/11/25 04:23:44;;;;;;;1.48;1.20;;;;;;;7.93;57.70;99195.72;3407940;29;20134;-71
2021/11/25 04:25:25;;;;;;;0.93;0.73;;;;;;;7.93;57.72;99187.75;3415270;29;20039;-72
2021/11/25 04:27:06;;;;;;;3.10;1.00;;;;;;;7.96;57.97;99195.34;3401011;29;20039;-72
2021/11/25 04:28:47;;;;;;;1.25;0.93;;;;;;;7.95;57.63;99195.50;3398482;29;20130;-72
2021/11/25 04:30:51;;;;;;;1.27;0.90;;;;;;;7.93;57.76;99194.91;3412051;29;20116;-72
2021/11/25 04:36:32;;;;;;;1.15;0.88;;;;;;;7.88;57.71;99206.06;3415019;29;20048;-73
2021/11/25 04:38:16;;;;;;;1.37;1.27;;;;;;;7.89;58.04;99206.88;3400770;29;20044;-74
2021/11/25 04:39:57;;;;;;;2.90;0.80;;;;;;;7.89;57.92;99212.19;3412371;29;20573;-74
2021/11/25 04:41:37;;;;;;;1.70;1.33;;;;;;;7.86;57.88;99211.56;3414963;29;20074;-73
2021/11/25 04:43:18;;;;;;;1.85;1.27;;;;;;;7.88;57.95;99213.22;3415081;29;20128;-73
2021/11/25 04:44:59;;;;;;;2.63;0.95;;;;;;;7.86;57.91;99216.03;3415502;29;20134;-73
2021/11/25 04:46:41;;;;;;;1.40;1.02;;;;;;;7.88;58.01;99222.00;3415098;29;20098;-72
2021/11/25 04:48:23;;;;;;;3.63;1.23;;;;;;;7.87;57.99;99217.69;3400577;29;20063;-73
2021/11/25 04:50:04;;;;;;;3.97;1.10;;;;;;;7.87;58.11;99220.34;3412286;29;20039;-72
2021/11/25 04:51:45;;;;;;;1.08;0.98;;;;;;;7.87;57.87;99222.97;3408102;29;20035;-73
2021/11/25 04:53:27;;;;;;;3.15;1.40;;;;;;;7.89;58.11;99223.63;3413789;29;20050;-73
2021/11/25 04:55:08;;;;;;;5.45;1.10;;;;;;;7.89;58.19;99228.94;3414652;29;20082;-74
2021/11/25 04:56:48;;;;;;;3.15;1.33;;;;;;;7.90;58.18;99227.09;3415194;28;20090;-71
2021/11/25 04:58:29;;;;;;;2.55;1.45;;;;;;;7.90;58.11;99235.06;3415074;29;20043;-74
2021/11/25 05:00:10;;;;;;;3.88;1.13;;;;;;;7.84;58.05;99224.19;3413615;29;20399;-70
2021/11/25 05:01:51;;;;;;;1.63;0.90;;;;;;;7.89;58.12;99236.88;3404556;29;20067;-71
2021/11/25 05:03:32;;;;;;;1.70;1.00;;;;;;;7.92;58.18;99233.03;3413762;29;20042;-72
2021/11/25 05:05:13;;;;;;;2.75;1.25;;;;;;;7.90;58.03;99237.69;3414782;29;20527;-69
2021/11/25 05:06:53;;;;;;;2.63;1.05;;;;;;;7.91;58.13;99237.53;3414703;29;20039;-69
2021/11/25 05:08:34;;;;;;;1.35;1.25;;;;;;;7.93;58.09;99237.34;3414502;29;20131;-70
2021/11/25 05:10:15;;;;;;;6.55;1.13;;;;;;;7.92;58.21;99239.16;3414453;29;20523;-74
2021/11/25 05:11:55;;;;;;;3.55;1.30;;;;;;;7.92;58.34;99246.31;3414919;29;20039;-74
2021/11/25 05:13:36;;;;;;;2.92;1.30;;;;;;;7.93;58.25;99245.31;3414705;29;20035;-71
2021/11/25 05:15:17;;;;;;;3.78;1.65;;;;;;;7.94;58.33;99246.94;3400435;29;20046;-71
2021/11/25 05:16:58;;;;;;;4.60;1.27;;;;;;;7.93;58.25;99256.75;3411885;29;20039;-71
2021/11/25 05:18:38;;;;;;;2.45;1.25;;;;;;;7.91;58.29;99248.13;3399967;29;20067;-71
2021/11/25 05:20:19;;;;;;;2.92;1.17;;;;;;;7.92;58.41;99246.31;3397337;29;20134;-76
2021/11/25 05:22:00;;;;;;;4.32;1.50;;;;;;;7.94;58.62;99262.88;3401686;29;20040;-74
2021/11/25 05:23:41;;;;;;;1.55;1.10;;;;;;;7.93;58.52;99255.94;3400480;29;20380;-73
2021/11/25 05:25:22;;;;;;;3.78;1.75;;;;;;;7.92;58.44;99260.38;3411708;29;20070;-73
2021/11/25 05:27:03;;;;;;;2.20;1.70;;;;;;;7.92;58.43;99263.03;3414804;29;20506;-73
2021/11/25 05:28:44;;;;;;;2.40;2.20;;;;;;;7.89;58.55;99257.31;3414233;29;20051;-73
2021/11/25 05:30:30;;;;;;;2.78;2.58;;;;;;;7.91;58.47;99271.22;3413708;29;20134;-71
2021/11/25 05:32:15;;;;;;;5.95;2.30;;;;;;;7.91;58.56;99258.75;3413070;29;20483;-71
2021/11/25 05:33:55;;;;;;;5.90;2.03;;;;;;;7.92;58.79;99267.53;3414745;29;20035;-72
2021/11/25 05:35:38;;;;;;;3.67;1.95;;;;;;;7.84;58.81;99253.38;3414553;29;20091;-72
2021/11/25 05:37:18;;;;;;;2.60;1.65;;;;;;;7.93;58.79;99255.94;3414866;29;20057;-72
2021/11/25 05:38:59;;;;;;;2.20;1.73;;;;;;;7.93;58.77;99264.69;3414646;29;20051;-72
2021/11/25 05:40:44;;;;;;;1.75;1.50;;;;;;;7.93;58.86;99255.94;3401000;29;20051;-72
2021/11/25 05:42:25;;;;;;;3.35;2.13;;;;;;;8.00;58.97;99275.38;3412319;29;20515;-72
2021/11/25 05:44:07;;;;;;;5.93;1.30;;;;;;;8.01;59.08;99269.06;3415626;29;20050;-73
2021/11/25 05:45:48;;;;;;;3.95;1.33;;;;;;;7.99;59.17;99255.97;3415914;29;20146;-73
2021/11/25 05:47:31;;;;;;;2.45;1.60;;;;;;;8.00;59.15;99273.56;3416377;29;20494;-75
2021/11/25 05:49:12;;;;;;;3.80;1.20;;;;;;;8.02;59.23;99283.97;3415851;29;20047;-76
2021/11/25 05:50:54;;;;;;;2.78;1.67;;;;;;;8.03;59.36;99281.16;3415595;29;20126;-73
2021/11/25 05:52:35;;;;;;;4.07;1.10;;;;;;;8.03;59.44;99281.16;3415064;29;20050;-74
2021/11/25 05:54:16;;;;;;;4.18;1.38;;;;;;;8.05;59.19;99278.28;3414348;29;20453;-73
2021/11/25 05:55:57;;;;;;;4.47;1.60;;;;;;;8.05;59.29;99280.94;3414549;29;20129;-74
2021/11/25 05:57:37;;;;;;;2.85;1.73;;;;;;;8.07;59.28;99281.56;3414710;29;20043;-73
2021/11/25 05:59:19;;;;;;;2.00;1.40;;;;;;;8.08;59.43;99275.28;3399430;29;20047;-72
2021/11/25 06:01:00;;;;;;;3.40;1.70;;;;;;;8.08;59.37;99280.59;3411588;29;20309;-73
2021/11/25 06:02:43;;;;;;;3.80;1.92;;;;;;;8.08;59.45;99280.59;3400723;29;20539;-72
2021/11/25 06:04:24;;;;;;;2.45;1.40;;;;;;;8.09;59.22;99274.25;3412847;29;20043;-72
2021/11/25 06:06:05;;;;;;;4.65;1.73;;;;;;;8.09;59.32;99271.59;3414600;29;20533;-72
2021/11/25 06:07:47;;;;;;;3.65;1.33;;;;;;;8.09;59.27;99269.75;3414706;28;20043;-73
2021/11/25 06:09:28;;;;;;;3.72;1.77;;;;;;;8.10;59.36;99278.53;3402418;29;20046;-73
2021/11/25 06:11:08;;;;;;;3.75;1.80;;;;;;;8.11;59.12;99272.25;3414219;29;20490;-73
2021/11/25 06:12:50;;;;;;;5.13;2.05;;;;;;;8.11;59.27;99274.91;3417897;29;20145;-73
2021/11/25 06:14:31;;;;;;;4.93;2.17;;;;;;;8.13;58.98;99280.84;3417227;29;20475;-72
2021/11/25 06:16:12;;;;;;;2.85;1.63;;;;;;;8.11;59.16;99271.41;3415892;29;20493;-72
2021/11/25 06:17:53;;;;;;;2.60;1.80;;;;;;;8.12;59.31;99270.41;3417229;29;20040;-72
2021/11/25 06:19:34;;;;;;;3.47;1.60;;;;;;;8.12;58.85;99276.53;3402063;29;20438;-73
2021/11/25 06:21:14;;;;;;;4.03;2.05;;;;;;;8.12;59.16;99276.53;3399728;29;20376;-72
2021/11/25 06:22:55;;;;;;;7.03;2.47;;;;;;;8.14;58.93;99276.34;3413450;29;20074;-73
2021/11/25 06:24:36;;;;;;;4.07;1.60;;;;;;;8.12;58.94;99281.84;3411700;29;20055;-71
2021/11/25 06:26:18;;;;;;;2.65;1.65;;;;;;;8.15;59.10;99281.44;3411041;29;20121;-73
2021/11/25 06:27:59;;;;;;;4.10;1.88;;;;;;;8.15;59.09;99284.09;3416325;29;20036;-73
2021/11/25 06:29:40;;;;;;;4.38;1.88;;;;;;;8.19;59.01;99281.91;3415635;29;20054;-72
2021/11/25 06:31:24;;;;;;;2.75;1.50;;;;;;;8.21;58.85;99283.38;3416535;29;20055;-71
2021/11/25 06:33:05;;;;;;;5.47;2.17;;;;;;;8.23;58.77;99281.31;3416359;29;20081;-72
2021/11/25 06:34:45;;;;;;;3.25;1.90;;;;;;;8.29;58.85;99288.56;3416652;29;20043;-71
2021/11/25 06:36:33;;;;;;;7.68;3.30;;;;;;;8.30;59.09;99278.75;3412560;29;20050;-71
2021/11/25 06:38:18;;;;;;;3.58;2.03;;;;;;;8.34;58.85;99282.69;3416445;29;20142;-72
2021/11/25 06:39:58;;;;;;;5.03;1.92;;;;;;;8.35;58.60;99286.97;3416841;29;20066;-71
2021/11/25 06:41:39;;;;;;;3.80;2.00;;;;;;;8.37;58.87;99286.78;3416635;28;20039;-71
2021/11/25 06:43:20;;;;;;;4.10;2.30;;;;;;;8.38;58.87;99275.13;3430084;28;20038;-71
2021/11/25 06:45:01;;;;;;;7.13;2.15;;;;;;;8.38;58.83;99285.75;3429930;28;20043;-74
2021/11/25 06:46:44;;;;;;;3.50;1.65;;;;;;;8.39;58.98;99276.78;3413241;29;20043;-71
2021/11/25 06:48:24;;;;;;;6.25;1.80;;;;;;;8.37;59.09;99289.44;3414428;29;20043;-72
2021/11/25 06:50:07;;;;;;;8.32;2.20;;;;;;;8.36;59.08;99291.25;3416777;29;20073;-71
2021/11/25 06:51:48;;;;;;;4.68;1.70;;;;;;;8.35;59.21;99292.28;3416425;29;20613;-72
2021/11/25 06:53:29;;;;;;;5.63;1.73;;;;;;;8.37;59.28;99298.22;3416656;29;20050;-71
2021/11/25 06:55:10;;;;;;;2.00;1.67;;;;;;;8.37;59.38;99294.75;3415833;29;20031;-71
2021/11/25 06:56:51;;;;;;;3.33;1.15;;;;;;;8.38;59.29;99296.38;3416082;29;20085;-72
2021/11/25 06:58:32;;;;;;;3.58;1.95;;;;;;;8.39;59.45;99292.69;3415769;29;20438;-72
2021/11/25 07:00:15;;;;;;;4.57;1.50;;;;;;;8.39;59.29;99298.00;3416200;29;20126;-72
2021/11/25 07:01:57;;;;;;;4.22;1.83;;;;;;;8.38;59.23;99302.50;3416178;29;20050;-72
2021/11/25 07:03:37;;;;;;;6.70;1.60;;;;;;;8.37;59.31;99300.06;3416645;29;20495;-70
2021/11/25 07:05:18;;;;;;;6.28;1.90;;;;;;;8.39;59.50;99308.63;3416236;29;20050;-71
2021/11/25 07:07:00;;;;;;;2.17;1.35;;;;;;;8.38;59.38;99301.69;3416431;29;20580;-71
2021/11/25 07:08:40;;;;;;;5.53;1.63;;;;;;;8.41;59.62;99310.13;3415550;29;20039;-70
2021/11/25 07:10:22;;;;;;;6.38;2.33;;;;;;;8.41;59.65;99309.31;3415950;29;20198;-74
2021/11/25 07:12:04;;;;;;;6.53;1.92;;;;;;;8.42;59.48;99313.63;3412466;29;20582;-72
2021/11/25 07:13:46;;;;;;;2.33;1.20;;;;;;;8.42;59.55;99303.81;3415962;29;20134;-73
2021/11/25 07:15:27;;;;;;;1.83;1.48;;;;;;;8.41;59.72;99307.47;3416472;29;20055;-72
2021/11/25 07:17:09;;;;;;;4.88;1.35;;;;;;;8.41;59.60;99311.97;3416227;29;20047;-72
2021/11/25 07:18:50;;;;;;;4.55;2.00;;;;;;;8.39;59.62;99309.50;3415326;29;20122;-71
2021/11/25 07:20:31;;;;;;;4.22;2.20;;;;;;;8.36;59.59;99309.03;3414833;28;20039;-71
2021/11/25 07:22:12;;;;;;;3.08;1.70;;;;;;;8.37;59.56;99310.69;3416245;29;20071;-71
2021/11/25 07:23:55;;;;;;;3.47;1.95;;;;;;;8.38;59.78;99320.28;3401656;29;20050;-71
2021/11/25 07:25:36;;;;;;;6.22;2.55;;;;;;;8.37;59.66;99310.69;3413760;29;20099;-71
2021/11/25 07:27:17;;;;;;;4.93;1.75;;;;;;;8.39;59.60;99316.59;3415489;29;20423;-71
2021/11/25 07:28:57;;;;;;;4.50;2.47;;;;;;;8.37;59.78;99306.19;3415694;29;20102;-71
2021/11/25 07:30:38;;;;;;;2.45;1.55;;;;;;;8.38;59.80;99309.66;3400469;29;20512;-72
2021/11/25 07:32:19;;;;;;;2.90;2.00;;;;;;;8.41;59.82;99320.75;3402353;29;20043;-71
2021/11/25 07:34:02;;;;;;;2.38;1.25;;;;;;;8.40;59.82;99315.63;3402742;29;20047;-70
2021/11/25 07:35:46;;;;;;;4.22;2.13;;;;;;;8.41;59.88;99318.09;3397545;29;20047;-70
2021/11/25 07:37:27;;;;;;;4.30;1.65;;;;;;;8.42;59.79;99322.41;3389335;29;20127;-72
2021/11/25 07:39:10;;;;;;;5.60;2.17;;;;;;;8.44;59.89;99323.03;3390302;29;20428;-72
2021/11/25 07:40:52;;;;;;;6.35;2.13;;;;;;;8.45;59.94;99321.19;3389758;29;20044;-71
2021/11/25 07:42:33;;;;;;;3.58;2.05;;;;;;;8.45;59.81;99324.69;3390224;29;20048;-71
2021/11/25 07:44:15;;;;;;;5.43;2.15;;;;;;;8.49;59.79;99335.72;3390414;29;20048;-73
2021/11/25 07:45:57;;;;;;;3.55;2.10;;;;;;;8.49;59.76;99327.75;3389766;29;20047;-72
2021/11/25 07:47:38;;;;;;;7.53;2.20;;;;;;;8.48;59.84;99323.47;3389525;29;20520;-70
2021/11/25 07:49:24;;;;;;;3.92;2.63;;;;;;;8.49;59.80;99322.44;3389337;29;20181;-70
2021/11/25 07:51:05;;;;;;;3.83;1.67;;;;;;;8.49;59.63;99330.41;3374406;29;20045;-71
2021/11/25 07:52:46;;;;;;;2.95;2.15;;;;;;;8.48;59.69;99331.44;3384992;29;20032;-70
2021/11/25 07:54:28;;;;;;;1.67;1.50;;;;;;;8.47;59.54;99329.81;3388360;29;20055;-71
2021/11/25 07:56:09;;;;;;;;;;;;;;;8.59;59.22;99330.91;3391759;29;20046;-71
2021/11/25 07:57:50;;;;;;;2.65;1.73;;;;;;;8.51;59.22;99333.72;3389427;29;19945;-71
2021/11/25 07:59:30;;;;;;;5.78;1.85;;;;;;;8.48;59.43;99340.22;3385606;29;20044;-70
2021/11/25 08:01:11;;;;;;;2.65;1.67;;;;;;;8.46;59.33;99336.13;3389597;29;20056;-72
2021/11/25 08:02:52;;;;;;;1.80;1.35;;;;;;;8.45;59.53;99332.66;3389720;29;20527;-71
2021/11/25 08:04:33;;;;;;;1.98;1.58;;;;;;;8.44;59.68;99332.81;3389005;29;20054;-72
2021/11/25 08:06:13;;;;;;;5.57;1.83;;;;;;;8.46;59.60;99330.81;3390272;29;20043;-71
2021/11/25 08:07:56;;;;;;;3.95;1.67;;;;;;;8.45;59.61;99331.81;3389285;29;20032;-71